sensor_id;sensor_type;location;lat;lon;timestamp;pressure;altitude;pressure_sealevel;temperature;humidity
3206;BME280;1615;53.602;11.418;2024-02-21T00:01:42;101422.81;;;10.60;100.00
3206;BME280;1615;53.602;11.418;2024-02-21T00:04:07;101189.06;;;9.21;100.00
3206;BME280;1615;53.602;11.418;2024-02-21T00:06:32;101437.63;;;10.74;100.00
3206;BME280;1615;53.602;11.418;2024-02-21T00:08:58;101220.81;;;9.42;100.00
3206;BME280;1615;53.602;11.418;2024-02-21T00:11:23;101409.94;;;10.60;100.00
3206;BME280;1615;53.602;11.418;2024-02-21T00:13:49;101434.34;;;10.72;100.00
3206;BME280;1615;53.602;11.418;2024-02-21T00:16:15;101414.34;;;10.61;100.00
3206;BME280;1615;53.602;11.418;2024-02-21T00:18:41;101422.28;;;10.73;100.00
3206;BME280;1615;53.602;11.418;2024-02-21T00:21:06;101427.75;;;10.73;100.00
3206;BME280;1615;53.602;11.418;2024-02-21T00:23:31;101402.53;;;10.61;100.00
3206;BME280;1615;53.602;11.418;2024-02-21T00:25:57;101421.69;;;10.71;100.00
3206;BME280;1615;53.602;11.418;2024-02-21T00:28:22;101423.38;;;10.67;100.00
3206;BME280;1615;53.602;11.418;2024-02-21T00:30:47;101417.59;;;10.73;100.00
3206;BME280;1615;53.602;11.418;2024-02-21T00:33:16;101457.34;;;10.71;100.00
3206;BME280;1615;53.602;11.418;2024-02-21T00:35:41;101404.97;;;10.72;100.00
3206;BME280;1615;53.602;11.418;2024-02-21T00:38:07;101376.78;;;10.57;100.00
3206;BME280;1615;53.602;11.418;2024-02-21T00:40:32;101404.44;;;10.75;100.00
3206;BME280;1615;53.602;11.418;2024-02-21T00:42:57;101391.00;;;10.74;100.00
3206;BME280;1615;53.602;11.418;2024-02-21T00:45:22;101370.72;;;10.65;100.00
3206;BME280;1615;53.602;11.418;2024-02-21T00:47:48;101364.97;;;10.61;100.00
3206;BME280;1615;53.602;11.418;2024-02-21T00:50:13;101386.03;;;10.81;100.00
3206;BME280;1615;53.602;11.418;2024-02-21T00:52:39;101324.72;;;10.47;100.00
3206;BME280;1615;53.602;11.418;2024-02-21T00:55:05;101366.28;;;10.79;100.00
3206;BME280;1615;53.602;11.418;2024-02-21T00:57:30;101360.81;;;10.79;100.00
3206;BME280;1615;53.602;11.418;2024-02-21T00:59:55;101288.59;;;10.35;100.00
3206;BME280;1615;53.602;11.418;2024-02-21T01:02:21;101350.94;;;10.83;100.00
3206;BME280;1615;53.602;11.418;2024-02-21T01:04:46;101344.38;;;10.74;100.00
3206;BME280;1615;53.602;11.418;2024-02-21T01:07:11;101315.91;;;10.60;100.00
3206;BME280;1615;53.602;11.418;2024-02-21T01:09:37;101286.06;;;10.53;100.00
3206;BME280;1615;53.602;11.418;2024-02-21T01:12:02;101307.91;;;10.68;100.00
3206;BME280;1615;53.602;11.418;2024-02-21T01:14:28;101328.44;;;10.81;100.00
3206;BME280;1615;53.602;11.418;2024-02-21T01:16:53;101314.19;;;10.79;100.00
3206;BME280;1615;53.602;11.418;2024-02-21T01:19:18;101370.94;;;10.83;100.00
3206;BME280;1615;53.602;11.418;2024-02-21T01:21:44;101283.56;;;10.62;100.00
3206;BME280;1615;53.602;11.418;2024-02-21T01:24:09;101267.16;;;10.52;100.00
3206;BME280;1615;53.602;11.418;2024-02-21T01:26:34;101314.41;;;10.87;100.00
3206;BME280;1615;53.602;11.418;2024-02-21T01:28:59;101293.91;;;10.75;100.00
3206;BME280;1615;53.602;11.418;2024-02-21T01:31:25;101263.53;;;10.61;100.00
3206;BME280;1615;53.602;11.418;2024-02-21T01:33:50;101282.38;;;10.83;100.00
3206;BME280;1615;53.602;11.418;2024-02-21T01:36:15;101291.94;;;10.85;100.00
3206;BME280;1615;53.602;11.418;2024-02-21T01:38:41;101291.38;;;10.88;100.00
3206;BME280;1615;53.602;11.418;2024-02-21T01:41:06;101281.81;;;10.76;100.00
3206;BME280;1615;53.602;11.418;2024-02-21T01:43:31;101273.94;;;10.69;100.00
3206;BME280;1615;53.602;11.418;2024-02-21T01:45:57;101272.53;;;10.72;100.00
3206;BME280;1615;53.602;11.418;2024-02-21T01:48:23;101178.47;;;10.18;100.00
3206;BME280;1615;53.602;11.418;2024-02-21T01:50:49;101241.91;;;10.55;100.00
3206;BME280;1615;53.602;11.418;2024-02-21T01:53:21;101262.38;;;10.72;100.00
3206;BME280;1615;53.602;11.418;2024-02-21T01:55:48;101282.38;;;10.78;100.00
3206;BME280;1615;53.602;11.418;2024-02-21T01:58:14;101230.91;;;10.60;100.00
3206;BME280;1615;53.602;11.418;2024-02-21T02:00:41;101332.00;;;10.81;100.00
3206;BME280;1615;53.602;11.418;2024-02-21T02:03:09;101266.44;;;10.85;100.00
3206;BME280;1615;53.602;11.418;2024-02-21T02:05:35;101238.00;;;10.66;100.00
3206;BME280;1615;53.602;11.418;2024-02-21T02:08:01;101194.06;;;10.27;100.00
3206;BME280;1615;53.602;11.418;2024-02-21T02:10:26;101248.66;;;10.77;100.00
3206;BME280;1615;53.602;11.418;2024-02-21T02:12:52;101237.44;;;10.74;100.00
3206;BME280;1615;53.602;11.418;2024-02-21T02:15:17;101226.25;;;10.60;100.00
3206;BME280;1615;53.602;11.418;2024-02-21T02:17:43;101226.56;;;10.54;100.00
3206;BME280;1615;53.602;11.418;2024-02-21T02:20:08;101220.50;;;10.62;100.00
3206;BME280;1615;53.602;11.418;2024-02-21T02:22:35;101231.50;;;10.57;100.00
3206;BME280;1615;53.602;11.418;2024-02-21T02:25:02;101011.53;;;9.29;100.00
3206;BME280;1615;53.602;11.418;2024-02-21T02:27:28;101216.72;;;10.48;100.00
3206;BME280;1615;53.602;11.418;2024-02-21T02:29:53;101230.06;;;10.64;100.00
3206;BME280;1615;53.602;11.418;2024-02-21T02:32:18;101203.25;;;10.56;100.00
3206;BME280;1615;53.602;11.418;2024-02-21T02:34:44;101214.44;;;10.65;100.00
3206;BME280;1615;53.602;11.418;2024-02-21T02:37:09;101190.38;;;10.52;100.00
3206;BME280;1615;53.602;11.418;2024-02-21T02:39:34;101215.22;;;10.70;100.00
3206;BME280;1615;53.602;11.418;2024-02-21T02:42:01;101211.94;;;10.68;100.00
3206;BME280;1615;53.602;11.418;2024-02-21T02:44:26;101166.25;;;10.54;100.00
3206;BME280;1615;53.602;11.418;2024-02-21T02:46:51;101202.91;;;10.68;100.00
3206;BME280;1615;53.602;11.418;2024-02-21T02:49:17;101185.88;;;10.71;100.00
3206;BME280;1615;53.602;11.418;2024-02-21T02:51:43;101184.03;;;10.61;100.00
3206;BME280;1615;53.602;11.418;2024-02-21T02:54:11;100941.53;;;9.18;100.00
3206;BME280;1615;53.602;11.418;2024-02-21T02:56:36;101176.00;;;10.70;100.00
3206;BME280;1615;53.602;11.418;2024-02-21T02:59:02;101155.88;;;10.51;100.00
3206;BME280;1615;53.602;11.418;2024-02-21T03:01:28;101146.53;;;10.52;100.00
3206;BME280;1615;53.602;11.418;2024-02-21T03:03:54;101132.53;;;10.53;100.00
3206;BME280;1615;53.602;11.418;2024-02-21T03:06:19;101134.13;;;10.64;100.00
3206;BME280;1615;53.602;11.418;2024-02-21T03:08:44;101082.44;;;10.43;100.00
3206;BME280;1615;53.602;11.418;2024-02-21T03:11:09;101125.59;;;10.66;100.00
3206;BME280;1615;53.602;11.418;2024-02-21T03:13:36;101108.56;;;10.69;100.00
3206;BME280;1615;53.602;11.418;2024-02-21T03:16:01;101097.13;;;10.62;100.00
3206;BME280;1615;53.602;11.418;2024-02-21T03:18:26;101097.38;;;10.65;100.00
3206;BME280;1615;53.602;11.418;2024-02-21T03:20:52;101084.75;;;10.64;100.00
3206;BME280;1615;53.602;11.418;2024-02-21T03:23:17;101097.66;;;10.64;100.00
3206;BME280;1615;53.602;11.418;2024-02-21T03:25:42;101115.16;;;10.68;100.00
3206;BME280;1615;53.602;11.418;2024-02-21T03:28:08;101122.00;;;10.70;100.00
3206;BME280;1615;53.602;11.418;2024-02-21T03:30:33;101112.50;;;10.58;100.00
3206;BME280;1615;53.602;11.418;2024-02-21T03:32:59;101093.03;;;10.59;100.00
3206;BME280;1615;53.602;11.418;2024-02-21T03:35:24;100908.59;;;9.43;100.00
3206;BME280;1615;53.602;11.418;2024-02-21T03:37:51;101104.16;;;10.73;100.00
3206;BME280;1615;53.602;11.418;2024-02-21T03:40:17;101095.97;;;10.68;100.00
3206;BME280;1615;53.602;11.418;2024-02-21T03:42:42;101020.47;;;10.08;100.00
3206;BME280;1615;53.602;11.418;2024-02-21T03:45:08;101111.28;;;10.74;100.00
3206;BME280;1615;53.602;11.418;2024-02-21T03:47:33;101088.91;;;10.62;100.00
3206;BME280;1615;53.602;11.418;2024-02-21T03:49:59;101054.78;;;10.39;100.00
3206;BME280;1615;53.602;11.418;2024-02-21T03:52:24;101083.44;;;10.57;100.00
3206;BME280;1615;53.602;11.418;2024-02-21T03:54:50;101101.69;;;10.71;100.00
3206;BME280;1615;53.602;11.418;2024-02-21T03:57:15;101109.06;;;10.76;100.00
3206;BME280;1615;53.602;11.418;2024-02-21T03:59:42;101103.34;;;10.72;100.00
3206;BME280;1615;53.602;11.418;2024-02-21T04:02:07;101089.31;;;10.79;100.00
3206;BME280;1615;53.602;11.418;2024-02-21T04:04:34;101101.09;;;10.74;100.00
3206;BME280;1615;53.602;11.418;2024-02-21T04:07:00;101089.34;;;10.74;100.00
3206;BME280;1615;53.602;11.418;2024-02-21T04:09:26;101078.94;;;10.71;100.00
3206;BME280;1615;53.602;11.418;2024-02-21T04:11:51;101106.25;;;10.86;100.00
3206;BME280;1615;53.602;11.418;2024-02-21T04:14:17;101063.06;;;10.68;100.00
3206;BME280;1615;53.602;11.418;2024-02-21T04:16:42;101092.56;;;10.81;100.00
3206;BME280;1615;53.602;11.418;2024-02-21T04:19:07;101033.59;;;10.50;100.00
3206;BME280;1615;53.602;11.418;2024-02-21T04:21:33;101078.63;;;10.77;100.00
3206;BME280;1615;53.602;11.418;2024-02-21T04:23:58;101092.72;;;10.94;100.00
3206;BME280;1615;53.602;11.418;2024-02-21T04:26:23;101098.16;;;10.99;100.00
3206;BME280;1615;53.602;11.418;2024-02-21T04:28:49;101065.97;;;10.81;100.00
3206;BME280;1615;53.602;11.418;2024-02-21T04:31:14;101094.63;;;10.99;100.00
3206;BME280;1615;53.602;11.418;2024-02-21T04:33:39;101089.09;;;11.04;100.00
3206;BME280;1615;53.602;11.418;2024-02-21T04:36:05;101071.81;;;11.03;100.00
3206;BME280;1615;53.602;11.418;2024-02-21T04:38:31;101065.81;;;11.01;100.00
3206;BME280;1615;53.602;11.418;2024-02-21T04:40:56;100976.28;;;10.53;100.00
3206;BME280;1615;53.602;11.418;2024-02-21T04:43:24;101047.25;;;10.88;100.00
3206;BME280;1615;53.602;11.418;2024-02-21T04:45:49;101067.19;;;10.99;100.00
3206;BME280;1615;53.602;11.418;2024-02-21T04:48:14;101046.94;;;10.95;100.00
3206;BME280;1615;53.602;11.418;2024-02-21T04:50:40;101053.13;;;11.05;100.00
3206;BME280;1615;53.602;11.418;2024-02-21T04:53:06;101053.94;;;11.06;100.00
3206;BME280;1615;53.602;11.418;2024-02-21T04:55:31;101062.22;;;11.01;100.00
3206;BME280;1615;53.602;11.418;2024-02-21T04:57:56;101055.00;;;11.10;100.00
3206;BME280;1615;53.602;11.418;2024-02-21T05:00:22;101026.13;;;10.89;100.00
3206;BME280;1615;53.602;11.418;2024-02-21T05:02:47;101061.06;;;11.07;100.00
3206;BME280;1615;53.602;11.418;2024-02-21T05:05:13;101052.38;;;11.00;100.00
3206;BME280;1615;53.602;11.418;2024-02-21T05:07:40;101050.41;;;11.00;100.00
3206;BME280;1615;53.602;11.418;2024-02-21T05:10:07;101045.75;;;11.01;100.00
3206;BME280;1615;53.602;11.418;2024-02-21T05:12:32;101057.94;;;11.18;100.00
3206;BME280;1615;53.602;11.418;2024-02-21T05:14:57;101058.03;;;11.08;100.00
3206;BME280;1615;53.602;11.418;2024-02-21T05:17:23;101046.59;;;11.01;100.00
3206;BME280;1615;53.602;11.418;2024-02-21T05:19:48;101058.84;;;11.09;100.00
3206;BME280;1615;53.602;11.418;2024-02-21T05:22:13;101071.13;;;11.16;100.00
3206;BME280;1615;53.602;11.418;2024-02-21T05:24:39;101072.19;;;11.20;100.00
3206;BME280;1615;53.602;11.418;2024-02-21T05:27:04;101010.69;;;10.69;100.00
3206;BME280;1615;53.602;11.418;2024-02-21T05:29:30;101069.25;;;11.12;100.00
3206;BME280;1615;53.602;11.418;2024-02-21T05:31:55;101070.88;;;11.13;100.00
3206;BME280;1615;53.602;11.418;2024-02-21T05:34:22;101085.72;;;11.12;100.00
3206;BME280;1615;53.602;11.418;2024-02-21T05:36:48;101067.06;;;11.09;100.00
3206;BME280;1615;53.602;11.418;2024-02-21T05:39:17;101044.13;;;11.00;100.00
3206;BME280;1615;53.602;11.418;2024-02-21T05:41:42;100952.22;;;10.45;100.00
3206;BME280;1615;53.602;11.418;2024-02-21T05:44:08;101054.69;;;11.11;100.00
3206;BME280;1615;53.602;11.418;2024-02-21T05:46:33;101064.81;;;11.16;100.00
3206;BME280;1615;53.602;11.418;2024-02-21T05:48:59;101076.13;;;11.09;100.00
3206;BME280;1615;53.602;11.418;2024-02-21T05:51:25;101067.91;;;11.09;100.00
3206;BME280;1615;53.602;11.418;2024-02-21T05:53:50;101066.25;;;11.08;100.00
3206;BME280;1615;53.602;11.418;2024-02-21T05:56:15;101050.78;;;10.94;100.00
3206;BME280;1615;53.602;11.418;2024-02-21T05:58:42;101070.41;;;11.06;100.00
3206;BME280;1615;53.602;11.418;2024-02-21T06:01:08;101059.25;;;10.97;100.00
3206;BME280;1615;53.602;11.418;2024-02-21T06:03:33;101055.66;;;10.97;100.00
3206;BME280;1615;53.602;11.418;2024-02-21T06:06:00;101068.19;;;11.08;100.00
3206;BME280;1615;53.602;11.418;2024-02-21T06:08:25;101072.38;;;11.00;100.00
3206;BME280;1615;53.602;11.418;2024-02-21T06:10:51;101073.75;;;10.98;100.00
3206;BME280;1615;53.602;11.418;2024-02-21T06:13:20;100988.19;;;10.39;100.00
3206;BME280;1615;53.602;11.418;2024-02-21T06:15:46;101073.53;;;10.94;100.00
3206;BME280;1615;53.602;11.418;2024-02-21T06:18:11;101029.94;;;10.64;100.00
3206;BME280;1615;53.602;11.418;2024-02-21T06:20:37;101070.03;;;10.89;100.00
3206;BME280;1615;53.602;11.418;2024-02-21T06:23:05;101071.06;;;10.93;100.00
3206;BME280;1615;53.602;11.418;2024-02-21T06:25:30;101079.84;;;10.95;100.00
3206;BME280;1615;53.602;11.418;2024-02-21T06:27:56;101072.81;;;10.84;100.00
3206;BME280;1615;53.602;11.418;2024-02-21T06:30:23;101062.41;;;10.81;100.00
3206;BME280;1615;53.602;11.418;2024-02-21T06:32:48;101045.00;;;10.67;100.00
3206;BME280;1615;53.602;11.418;2024-02-21T06:35:14;101058.06;;;10.75;100.00
3206;BME280;1615;53.602;11.418;2024-02-21T06:37:39;101070.59;;;10.86;100.00
3206;BME280;1615;53.602;11.418;2024-02-21T06:40:05;101054.81;;;10.73;100.00
3206;BME280;1615;53.602;11.418;2024-02-21T06:42:30;100975.19;;;10.21;100.00
3206;BME280;1615;53.602;11.418;2024-02-21T06:44:56;101022.63;;;10.50;100.00
3206;BME280;1615;53.602;11.418;2024-02-21T06:47:22;101081.56;;;10.86;100.00
3206;BME280;1615;53.602;11.418;2024-02-21T06:49:50;101087.84;;;10.91;100.00
3206;BME280;1615;53.602;11.418;2024-02-21T06:52:19;101077.69;;;10.87;100.00
3206;BME280;1615;53.602;11.418;2024-02-21T06:54:49;101076.66;;;10.83;100.00
3206;BME280;1615;53.602;11.418;2024-02-21T06:57:14;101035.97;;;10.61;100.00
3206;BME280;1615;53.602;11.418;2024-02-21T06:59:41;101007.38;;;10.39;100.00
3206;BME280;1615;53.602;11.418;2024-02-21T07:02:06;101070.88;;;10.84;100.00
3206;BME280;1615;53.602;11.418;2024-02-21T07:04:32;100993.97;;;10.37;100.00
3206;BME280;1615;53.602;11.418;2024-02-21T07:06:57;101043.91;;;10.63;100.00
3206;BME280;1615;53.602;11.418;2024-02-21T07:09:23;101067.66;;;10.77;100.00
3206;BME280;1615;53.602;11.418;2024-02-21T07:11:48;101077.22;;;10.80;100.00
3206;BME280;1615;53.602;11.418;2024-02-21T07:14:17;101046.09;;;10.61;100.00
3206;BME280;1615;53.602;11.418;2024-02-21T07:16:43;101045.06;;;10.57;100.00
3206;BME280;1615;53.602;11.418;2024-02-21T07:19:08;101077.25;;;10.75;100.00
3206;BME280;1615;53.602;11.418;2024-02-21T07:21:33;101036.97;;;10.42;100.00
3206;BME280;1615;53.602;11.418;2024-02-21T07:23:58;101022.41;;;10.41;100.00
3206;BME280;1615;53.602;11.418;2024-02-21T07:26:24;101082.72;;;10.80;100.00
3206;BME280;1615;53.602;11.418;2024-02-21T07:28:49;101005.22;;;10.36;100.00
3206;BME280;1615;53.602;11.418;2024-02-21T07:31:15;101087.00;;;10.91;100.00
3206;BME280;1615;53.602;11.418;2024-02-21T07:33:40;101070.34;;;10.82;100.00
3206;BME280;1615;53.602;11.418;2024-02-21T07:36:07;101088.63;;;10.92;100.00
3206;BME280;1615;53.602;11.418;2024-02-21T07:38:32;101061.31;;;10.77;100.00
3206;BME280;1615;53.602;11.418;2024-02-21T07:40:58;101052.81;;;10.78;100.00
3206;BME280;1615;53.602;11.418;2024-02-21T07:43:23;100991.72;;;10.44;100.00
3206;BME280;1615;53.602;11.418;2024-02-21T07:45:49;101060.69;;;10.90;100.00
3206;BME280;1615;53.602;11.418;2024-02-21T07:48:14;101070.22;;;10.97;100.00
3206;BME280;1615;53.602;11.418;2024-02-21T07:50:39;101083.00;;;11.07;100.00
3206;BME280;1615;53.602;11.418;2024-02-21T07:53:04;101075.97;;;10.96;100.00
3206;BME280;1615;53.602;11.418;2024-02-21T07:55:30;101075.97;;;10.96;100.00
3206;BME280;1615;53.602;11.418;2024-02-21T07:57:55;101077.75;;;11.10;100.00
3206;BME280;1615;53.602;11.418;2024-02-21T08:00:20;101085.16;;;11.15;100.00
3206;BME280;1615;53.602;11.418;2024-02-21T08:02:48;101062.47;;;11.04;100.00
3206;BME280;1615;53.602;11.418;2024-02-21T08:05:14;101058.22;;;11.17;100.00
3206;BME280;1615;53.602;11.418;2024-02-21T08:07:39;101076.22;;;11.28;100.00
3206;BME280;1615;53.602;11.418;2024-02-21T08:10:05;101060.72;;;11.13;100.00
3206;BME280;1615;53.602;11.418;2024-02-21T08:12:33;101053.47;;;11.22;100.00
3206;BME280;1615;53.602;11.418;2024-02-21T08:14:58;101077.00;;;11.33;100.00
3206;BME280;1615;53.602;11.418;2024-02-21T08:17:23;101064.13;;;11.29;100.00
3206;BME280;1615;53.602;11.418;2024-02-21T08:19:49;100860.81;;;10.08;100.00
3206;BME280;1615;53.602;11.418;2024-02-21T08:22:14;101045.25;;;11.22;100.00
3206;BME280;1615;53.602;11.418;2024-02-21T08:24:40;101071.31;;;11.48;100.00
3206;BME280;1615;53.602;11.418;2024-02-21T08:27:05;100911.91;;;10.51;100.00
3206;BME280;1615;53.602;11.418;2024-02-21T08:29:31;101051.06;;;11.44;100.00
3206;BME280;1615;53.602;11.418;2024-02-21T08:31:56;100993.25;;;11.12;100.00
3206;BME280;1615;53.602;11.418;2024-02-21T08:34:21;101034.34;;;11.41;100.00
3206;BME280;1615;53.602;11.418;2024-02-21T08:36:47;101039.25;;;11.44;100.00
3206;BME280;1615;53.602;11.418;2024-02-21T08:39:12;100951.19;;;10.93;100.00
3206;BME280;1615;53.602;11.418;2024-02-21T08:41:41;101015.06;;;11.46;100.00
3206;BME280;1615;53.602;11.418;2024-02-21T08:44:07;101045.34;;;11.64;100.00
3206;BME280;1615;53.602;11.418;2024-02-21T08:46:32;101051.75;;;11.55;100.00
3206;BME280;1615;53.602;11.418;2024-02-21T08:48:57;101061.03;;;11.64;100.00
3206;BME280;1615;53.602;11.418;2024-02-21T08:51:23;101058.22;;;11.69;100.00
3206;BME280;1615;53.602;11.418;2024-02-21T08:53:48;101079.06;;;11.70;100.00
3206;BME280;1615;53.602;11.418;2024-02-21T08:56:15;101008.66;;;11.32;100.00
3206;BME280;1615;53.602;11.418;2024-02-21T08:58:40;101077.72;;;11.67;100.00
3206;BME280;1615;53.602;11.418;2024-02-21T09:01:07;101041.94;;;11.49;100.00
3206;BME280;1615;53.602;11.418;2024-02-21T09:03:38;101071.88;;;11.74;100.00
3206;BME280;1615;53.602;11.418;2024-02-21T09:06:05;101014.94;;;11.56;100.00
3206;BME280;1615;53.602;11.418;2024-02-21T09:08:30;101057.31;;;11.73;100.00
3206;BME280;1615;53.602;11.418;2024-02-21T09:10:56;101056.22;;;11.74;100.00
3206;BME280;1615;53.602;11.418;2024-02-21T09:13:21;101032.38;;;11.70;100.00
3206;BME280;1615;53.602;11.418;2024-02-21T09:15:48;101053.44;;;11.98;100.00
3206;BME280;1615;53.602;11.418;2024-02-21T09:18:14;101038.41;;;11.90;100.00
3206;BME280;1615;53.602;11.418;2024-02-21T09:20:39;101035.38;;;11.92;100.00
3206;BME280;1615;53.602;11.418;2024-02-21T09:23:04;101053.72;;;11.96;100.00
3206;BME280;1615;53.602;11.418;2024-02-21T09:25:30;101026.97;;;11.83;100.00
3206;BME280;1615;53.602;11.418;2024-02-21T09:27:56;101059.59;;;11.90;100.00
3206;BME280;1615;53.602;11.418;2024-02-21T09:30:24;101045.31;;;11.88;100.00
3206;BME280;1615;53.602;11.418;2024-02-21T09:32:49;101044.53;;;11.87;100.00
3206;BME280;1615;53.602;11.418;2024-02-21T09:35:14;101052.31;;;11.99;100.00
3206;BME280;1615;53.602;11.418;2024-02-21T09:37:40;101050.63;;;12.03;100.00
3206;BME280;1615;53.602;11.418;2024-02-21T09:40:06;101039.47;;;12.13;100.00
3206;BME280;1615;53.602;11.418;2024-02-21T09:42:39;101042.09;;;12.23;100.00
3206;BME280;1615;53.602;11.418;2024-02-21T09:45:08;101028.63;;;12.40;100.00
3206;BME280;1615;53.602;11.418;2024-02-21T09:47:50;101046.34;;;12.66;100.00
3206;BME280;1615;53.602;11.418;2024-02-21T09:50:17;101027.81;;;12.71;100.00
3206;BME280;1615;53.602;11.418;2024-02-21T09:52:44;101027.44;;;12.78;100.00
3206;BME280;1615;53.602;11.418;2024-02-21T09:55:10;101047.22;;;12.80;100.00
3206;BME280;1615;53.602;11.418;2024-02-21T09:57:37;101039.66;;;12.72;100.00
3206;BME280;1615;53.602;11.418;2024-02-21T10:00:04;101041.72;;;12.80;100.00
3206;BME280;1615;53.602;11.418;2024-02-21T10:02:33;101047.66;;;12.87;100.00
3206;BME280;1615;53.602;11.418;2024-02-21T10:04:58;101005.00;;;12.71;100.00
3206;BME280;1615;53.602;11.418;2024-02-21T10:07:25;101051.72;;;12.89;100.00
3206;BME280;1615;53.602;11.418;2024-02-21T10:10:00;101047.03;;;12.90;100.00
3206;BME280;1615;53.602;11.418;2024-02-21T10:12:26;101038.28;;;12.88;100.00
3206;BME280;1615;53.602;11.418;2024-02-21T10:15:03;101043.53;;;12.71;100.00
3206;BME280;1615;53.602;11.418;2024-02-21T10:17:28;101027.56;;;12.54;100.00
3206;BME280;1615;53.602;11.418;2024-02-21T10:19:54;100940.69;;;12.03;100.00
3206;BME280;1615;53.602;11.418;2024-02-21T10:22:19;101030.44;;;12.63;100.00
3206;BME280;1615;53.602;11.418;2024-02-21T10:24:46;101017.50;;;12.63;100.00
3206;BME280;1615;53.602;11.418;2024-02-21T10:27:11;101016.59;;;12.68;100.00
3206;BME280;1615;53.602;11.418;2024-02-21T10:29:37;101041.81;;;12.75;100.00
3206;BME280;1615;53.602;11.418;2024-02-21T10:32:12;101034.66;;;12.74;100.00
3206;BME280;1615;53.602;11.418;2024-02-21T10:34:39;101041.19;;;12.78;100.00
3206;BME280;1615;53.602;11.418;2024-02-21T10:37:06;101040.69;;;12.76;100.00
3206;BME280;1615;53.602;11.418;2024-02-21T10:39:41;101052.41;;;12.81;100.00
3206;BME280;1615;53.602;11.418;2024-02-21T10:42:10;101055.25;;;12.76;100.00
3206;BME280;1615;53.602;11.418;2024-02-21T10:44:40;101023.66;;;12.74;100.00
3206;BME280;1615;53.602;11.418;2024-02-21T10:47:10;101028.56;;;12.77;100.00
3206;BME280;1615;53.602;11.418;2024-02-21T10:49:39;100899.94;;;11.91;100.00
3206;BME280;1615;53.602;11.418;2024-02-21T10:52:18;101032.13;;;12.77;100.00
3206;BME280;1615;53.602;11.418;2024-02-21T10:57:27;101005.09;;;12.66;100.00
3206;BME280;1615;53.602;11.418;2024-02-21T10:59:55;100959.06;;;12.39;100.00
3206;BME280;1615;53.602;11.418;2024-02-21T11:02:21;101008.88;;;12.70;100.00
3206;BME280;1615;53.602;11.418;2024-02-21T11:04:46;101006.63;;;12.72;100.00
3206;BME280;1615;53.602;11.418;2024-02-21T11:07:13;101009.31;;;12.77;100.00
3206;BME280;1615;53.602;11.418;2024-02-21T11:09:39;101014.22;;;12.80;100.00
3206;BME280;1615;53.602;11.418;2024-02-21T11:12:05;101007.13;;;12.74;100.00
3206;BME280;1615;53.602;11.418;2024-02-21T11:14:31;101008.00;;;12.88;100.00
3206;BME280;1615;53.602;11.418;2024-02-21T11:16:58;101035.28;;;13.03;100.00
3206;BME280;1615;53.602;11.418;2024-02-21T11:19:26;100998.00;;;13.10;100.00
3206;BME280;1615;53.602;11.418;2024-02-21T11:21:53;100903.09;;;12.49;100.00
3206;BME280;1615;53.602;11.418;2024-02-21T11:24:29;100993.28;;;13.11;100.00
3206;BME280;1615;53.602;11.418;2024-02-21T11:27:12;100995.53;;;13.09;100.00
3206;BME280;1615;53.602;11.418;2024-02-21T11:29:47;100982.47;;;13.01;100.00
3206;BME280;1615;53.602;11.418;2024-02-21T11:32:19;100970.69;;;12.82;100.00
3206;BME280;1615;53.602;11.418;2024-02-21T11:34:57;100992.66;;;13.00;100.00
3206;BME280;1615;53.602;11.418;2024-02-21T11:37:34;100979.84;;;12.96;100.00
3206;BME280;1615;53.602;11.418;2024-02-21T11:40:03;100987.56;;;13.07;100.00
3206;BME280;1615;53.602;11.418;2024-02-21T11:42:30;100953.06;;;12.83;100.00
3206;BME280;1615;53.602;11.418;2024-02-21T11:45:01;100907.41;;;12.68;100.00
3206;BME280;1615;53.602;11.418;2024-02-21T11:47:29;100951.44;;;12.95;100.00
3206;BME280;1615;53.602;11.418;2024-02-21T11:49:54;100885.19;;;12.51;100.00
3206;BME280;1615;53.602;11.418;2024-02-21T11:52:26;100965.16;;;13.00;100.00
3206;BME280;1615;53.602;11.418;2024-02-21T11:54:52;100961.88;;;12.98;100.00
3206;BME280;1615;53.602;11.418;2024-02-21T11:57:18;100965.91;;;12.87;100.00
3206;BME280;1615;53.602;11.418;2024-02-21T11:59:45;100960.47;;;12.69;100.00
3206;BME280;1615;53.602;11.418;2024-02-21T12:02:14;100960.28;;;12.79;100.00
3206;BME280;1615;53.602;11.418;2024-02-21T12:04:40;100922.28;;;12.81;100.00
3206;BME280;1615;53.602;11.418;2024-02-21T12:07:05;100939.81;;;12.85;100.00
3206;BME280;1615;53.602;11.418;2024-02-21T12:09:31;100947.88;;;12.95;100.00
3206;BME280;1615;53.602;11.418;2024-02-21T12:12:04;100924.94;;;12.86;100.00
3206;BME280;1615;53.602;11.418;2024-02-21T12:14:31;100938.66;;;13.04;100.00
3206;BME280;1615;53.602;11.418;2024-02-21T12:16:57;100916.06;;;12.89;100.00
3206;BME280;1615;53.602;11.418;2024-02-21T12:19:23;100873.75;;;12.58;100.00
3206;BME280;1615;53.602;11.418;2024-02-21T12:21:49;100932.91;;;13.01;100.00
3206;BME280;1615;53.602;11.418;2024-02-21T12:26:42;100908.28;;;12.96;100.00
3206;BME280;1615;53.602;11.418;2024-02-21T12:29:08;100879.91;;;12.82;100.00
3206;BME280;1615;53.602;11.418;2024-02-21T12:31:39;100850.22;;;12.65;100.00
3206;BME280;1615;53.602;11.418;2024-02-21T12:34:05;100890.72;;;13.19;100.00
3206;BME280;1615;53.602;11.418;2024-02-21T12:36:36;100910.09;;;13.27;100.00
3206;BME280;1615;53.602;11.418;2024-02-21T12:39:05;100920.91;;;13.10;100.00
3206;BME280;1615;53.602;11.418;2024-02-21T12:41:31;100894.50;;;13.23;100.00
3206;BME280;1615;53.602;11.418;2024-02-21T12:43:58;100896.81;;;13.29;100.00
3206;BME280;1615;53.602;11.418;2024-02-21T12:46:23;100896.63;;;13.26;100.00
3206;BME280;1615;53.602;11.418;2024-02-21T12:48:49;100891.34;;;13.16;100.00
3206;BME280;1615;53.602;11.418;2024-02-21T12:51:14;100689.13;;;11.97;100.00